CheckWX is a tool to help pilots better visualize weather data.  It is not intended as a substitute for an official pre-flight weather briefing.

13:20:48 UTC

KMQB METAR
Macomb Municipal Airport
Macomb, Illinois, USA
Current

26 mins ago

KMQB 091255Z AUTO 00000KT 10SM SCT120 25/23 A2990 RMK AO2 T02490229
Observed
Jul-9 @ 12:55 UTC
Visibility
10 SM
Flight Rules
VFR
Cloud Levels
  • Scattered at 12,000' AGL
Temperature
25°C / 77°F
Dewpoint
23°C / 73°F
Humidity
89%
Altimeter
29.9" Hg
Pressure
1012.52 hPa
Previous

46 mins ago

KMQB 091235Z AUTO 00000KT 7SM CLR 24/22 A2989 RMK AO2 T02350223
Observed
Jul-9 @ 12:35 UTC
Visibility
7 SM
Flight Rules
VFR
Cloud Levels
  • Clear skies
Temperature
24°C / 75°F
Dewpoint
22°C / 72°F
Humidity
89%
Altimeter
29.89" Hg
Pressure
1012.22 hPa
Previous

1 hour ago

KMQB 091215Z AUTO 00000KT 4SM BR CLR 22/22 A2989 RMK AO2 T02230220
Observed
Jul-9 @ 12:15 UTC
Visibility
4 SM
Flight Rules
MVFR
Conditions
Mist
Cloud Levels
  • Clear skies
Temperature
22°C / 72°F
Dewpoint
22°C / 72°F
Humidity
100%
Altimeter
29.89" Hg
Pressure
1012.22 hPa